createdAt,value
2022-08-25T00:01:54.453Z,68.18
2022-08-25T00:04:23.853Z,68.13
2022-08-25T00:06:53.670Z,68.09
2022-08-25T00:09:27.663Z,68.36
2022-08-25T00:11:55.815Z,68.35
2022-08-25T00:14:27.278Z,68.61
2022-08-25T00:16:56.113Z,68.45
2022-08-25T00:19:28.187Z,68.59
2022-08-25T00:21:56.114Z,68.86
2022-08-25T00:24:24.800Z,69.18
2022-08-25T00:26:56.408Z,69.19
2022-08-25T00:29:28.615Z,69.22
2022-08-25T00:31:58.006Z,69.40
2022-08-25T00:34:31.527Z,69.30
2022-08-25T00:36:59.495Z,69.56
2022-08-25T00:39:27.803Z,69.84
2022-08-25T00:41:57.672Z,69.68
2022-08-25T00:44:27.777Z,69.93
2022-08-25T00:46:59.275Z,70.16
2022-08-25T00:49:37.489Z,70.43
2022-08-25T00:52:15.131Z,70.73
2022-08-25T00:54:54.919Z,70.81
2022-08-25T00:57:34.420Z,70.82
2022-08-25T01:00:19.421Z,70.98
2022-08-25T01:02:47.453Z,71.31
2022-08-25T01:05:15.414Z,71.30
2022-08-25T01:07:44.753Z,71.43
2022-08-25T01:10:13.832Z,71.27
2022-08-25T01:12:41.885Z,71.17
2022-08-25T01:15:12.539Z,71.14
2022-08-25T01:17:48.634Z,71.17
2022-08-25T01:20:19.941Z,71.32
2022-08-25T01:22:55.098Z,71.50
2022-08-25T01:25:42.501Z,71.61
2022-08-25T01:28:10.686Z,71.67
2022-08-25T01:30:39.538Z,71.77
2022-08-25T01:33:09.957Z,71.84
2022-08-25T01:35:39.132Z,72.06
2022-08-25T01:38:07.977Z,72.21
2022-08-25T01:40:37.172Z,72.27
2022-08-25T01:43:21.792Z,72.14
2022-08-25T01:45:49.735Z,72.10
2022-08-25T01:48:18.488Z,71.90
2022-08-25T01:50:46.867Z,71.80
2022-08-25T01:53:28.552Z,71.73
2022-08-25T01:56:02.769Z,71.61
2022-08-25T01:58:36.177Z,71.50
2022-08-25T02:01:08.258Z,71.41
2022-08-25T02:03:42.314Z,71.49
2022-08-25T02:06:16.388Z,71.40
2022-08-25T02:08:44.532Z,71.42
2022-08-25T02:11:15.485Z,71.35
2022-08-25T02:13:43.373Z,71.42
2022-08-25T02:16:18.334Z,71.22
2022-08-25T02:18:47.279Z,71.27
2022-08-25T02:21:15.447Z,71.12
2022-08-25T02:23:43.460Z,71.13
2022-08-25T02:26:14.036Z,71.07
2022-08-25T02:28:41.781Z,70.88
2022-08-25T02:31:09.922Z,71.00
2022-08-25T02:33:38.081Z,70.78
2022-08-25T02:36:07.501Z,71.01
2022-08-25T02:38:37.045Z,71.18
2022-08-25T02:41:18.040Z,71.15
2022-08-25T02:43:48.650Z,70.99
2022-08-25T02:46:20.087Z,70.72
2022-08-25T02:48:48.896Z,71.14
2022-08-25T02:51:16.878Z,71.34
2022-08-25T02:53:47.046Z,71.38
2022-08-25T02:56:16.334Z,71.40
2022-08-25T02:58:46.007Z,71.06
2022-08-25T03:01:14.779Z,71.00
2022-08-25T03:03:44.716Z,71.32
2022-08-25T03:06:15.518Z,71.85
2022-08-25T03:08:44.741Z,72.18
2022-08-25T03:11:12.618Z,72.07
2022-08-25T03:13:41.384Z,72.28
2022-08-25T03:16:11.433Z,72.41
2022-08-25T03:18:42.029Z,72.05
2022-08-25T03:21:11.883Z,71.83
2022-08-25T03:23:41.299Z,71.96
2022-08-25T03:26:28.115Z,71.70
2022-08-25T03:28:55.953Z,71.56
2022-08-25T03:31:27.782Z,71.36
2022-08-25T03:33:56.200Z,71.36
2022-08-25T03:36:24.548Z,71.50
2022-08-25T03:38:53.458Z,71.64
2022-08-25T03:41:29.050Z,71.82
2022-08-25T03:43:57.346Z,72.02
2022-08-25T03:46:35.041Z,72.20
2022-08-25T03:49:04.966Z,72.22
2022-08-25T03:51:40.617Z,72.21
2022-08-25T03:54:10.616Z,72.41
2022-08-25T03:56:38.763Z,72.42
2022-08-25T03:59:09.302Z,72.53
2022-08-25T04:01:39.520Z,72.41
2022-08-25T04:04:09.748Z,72.54
2022-08-25T04:06:39.669Z,72.50
2022-08-25T04:09:08.039Z,72.52
2022-08-25T04:11:36.512Z,72.53
2022-08-25T04:14:04.955Z,72.37
2022-08-25T04:16:35.777Z,72.23
2022-08-25T04:19:09.453Z,72.26
2022-08-25T04:21:39.762Z,72.31
2022-08-25T04:24:09.995Z,71.85
2022-08-25T04:26:42.696Z,71.79
2022-08-25T04:29:11.969Z,71.77
2022-08-25T04:31:42.035Z,71.75
2022-08-25T04:34:20.033Z,71.61
2022-08-25T04:37:00.625Z,71.22
2022-08-25T04:39:29.078Z,71.41
2022-08-25T04:41:57.531Z,71.09
2022-08-25T04:44:25.599Z,70.68
2022-08-25T04:46:53.722Z,70.60
2022-08-25T04:49:21.494Z,70.73
2022-08-25T04:51:49.506Z,70.60
2022-08-25T04:54:21.780Z,70.82
2022-08-25T04:56:58.050Z,70.79
2022-08-25T04:59:30.298Z,70.73
2022-08-25T05:02:02.703Z,70.79
2022-08-25T05:04:31.837Z,70.80
2022-08-25T05:07:00.758Z,70.64
2022-08-25T05:09:29.101Z,70.50
2022-08-25T05:12:04.590Z,70.37
2022-08-25T05:14:32.906Z,70.02
2022-08-25T05:17:02.102Z,69.76
2022-08-25T05:19:29.999Z,69.25
2022-08-25T05:21:58.336Z,69.17
2022-08-25T05:24:28.173Z,69.79
2022-08-25T05:26:57.131Z,69.78
2022-08-25T05:29:25.030Z,69.80
2022-08-25T05:31:53.790Z,69.32
2022-08-25T05:34:22.263Z,68.60
2022-08-25T05:36:51.238Z,68.00
2022-08-25T05:39:19.015Z,67.64
2022-08-25T05:41:46.794Z,67.20
2022-08-25T05:44:19.042Z,67.08
2022-08-25T05:46:48.439Z,66.34
2022-08-25T05:49:16.248Z,66.20
2022-08-25T05:51:44.022Z,66.07
2022-08-25T05:54:11.780Z,66.09
2022-08-25T05:56:40.213Z,65.66
2022-08-25T05:59:09.577Z,65.81
2022-08-25T06:01:56.807Z,65.41
2022-08-25T06:04:24.713Z,65.42
2022-08-25T06:06:54.866Z,65.14
2022-08-25T06:09:22.876Z,64.89
2022-08-25T06:11:54.684Z,64.44
2022-08-25T06:14:23.974Z,65.06
2022-08-25T06:16:52.623Z,65.44
2022-08-25T06:19:21.254Z,64.63
2022-08-25T06:21:49.658Z,64.58
2022-08-25T06:24:17.427Z,63.89
2022-08-25T06:26:45.762Z,64.06
2022-08-25T06:29:14.220Z,63.98
2022-08-25T06:31:43.724Z,63.21
2022-08-25T06:34:12.636Z,62.76
2022-08-25T06:36:40.509Z,63.12
2022-08-25T06:39:10.628Z,63.50
2022-08-25T06:41:39.202Z,63.13
2022-08-25T06:44:07.090Z,63.21
2022-08-25T06:46:36.152Z,62.95
2022-08-25T06:49:06.282Z,62.48
2022-08-25T06:51:36.140Z,61.97
2022-08-25T06:54:06.647Z,60.76
2022-08-25T06:56:34.764Z,60.89
2022-08-25T06:59:04.898Z,61.13
2022-08-25T07:01:33.477Z,61.70
2022-08-25T07:04:05.717Z,61.88
2022-08-25T07:06:36.571Z,61.66
2022-08-25T07:09:07.095Z,61.34
2022-08-25T07:11:35.493Z,60.63
2022-08-25T07:14:05.307Z,59.52
2022-08-25T07:16:33.958Z,59.34
2022-08-25T07:19:02.383Z,60.24
2022-08-25T07:21:33.634Z,60.14
2022-08-25T07:24:10.603Z,60.85
2022-08-25T07:26:40.507Z,60.67
2022-08-25T07:29:32.586Z,59.66
2022-08-25T07:32:02.871Z,59.79
2022-08-25T07:34:52.600Z,59.34
2022-08-25T07:37:45.441Z,58.19
2022-08-25T07:40:14.792Z,58.15
2022-08-25T07:42:42.849Z,58.48
2022-08-25T07:45:12.180Z,57.86
2022-08-25T07:47:40.292Z,56.92
2022-08-25T07:50:12.335Z,56.81
2022-08-25T07:52:41.109Z,56.70
2022-08-25T07:55:11.144Z,56.41
2022-08-25T07:57:42.643Z,55.94
2022-08-25T08:00:13.805Z,55.91
2022-08-25T08:02:43.430Z,56.44
2022-08-25T08:05:13.402Z,55.21
2022-08-25T08:07:42.994Z,55.63
2022-08-25T08:10:53.549Z,54.62
2022-08-25T08:13:02.443Z,54.76
2022-08-25T08:15:30.552Z,54.11
2022-08-25T08:17:59.477Z,53.34
2022-08-25T08:20:29.053Z,53.78
2022-08-25T08:22:57.459Z,53.15
2022-08-25T08:25:27.289Z,53.09
2022-08-25T08:27:56.786Z,52.72
2022-08-25T08:30:26.459Z,52.74
2022-08-25T08:33:11.918Z,52.37
2022-08-25T08:35:41.716Z,51.47
2022-08-25T08:38:16.054Z,51.18
2022-08-25T08:41:23.003Z,50.53
2022-08-25T08:44:01.417Z,50.84
2022-08-25T08:46:44.316Z,49.95
2022-08-25T08:49:37.994Z,50.54
2022-08-25T08:52:08.813Z,50.66
2022-08-25T08:54:41.215Z,50.41
2022-08-25T08:57:17.567Z,49.76
2022-08-25T09:00:06.745Z,49.36
2022-08-25T09:02:51.485Z,49.48
2022-08-25T09:05:22.725Z,49.25
2022-08-25T09:07:55.503Z,49.30
2022-08-25T09:10:28.814Z,49.03
2022-08-25T09:13:05.902Z,48.60
2022-08-25T09:16:09.888Z,46.30
2022-08-25T09:19:46.070Z,43.99
2022-08-25T09:22:35.317Z,41.03
2022-08-25T09:25:22.143Z,37.58
2022-08-25T09:28:21.132Z,35.52
2022-08-25T09:30:58.609Z,33.32
2022-08-25T09:33:28.939Z,32.78
2022-08-25T09:35:57.757Z,30.85
2022-08-25T09:38:27.339Z,29.67
2022-08-25T09:41:00.767Z,28.91
2022-08-25T09:43:40.403Z,28.01
2022-08-25T09:46:27.089Z,28.03
2022-08-25T09:48:58.000Z,26.88
2022-08-25T09:51:42.316Z,25.53
2022-08-25T09:54:13.740Z,26.07
2022-08-25T09:57:08.810Z,25.49
2022-08-25T09:59:37.612Z,24.89
2022-08-25T10:02:28.686Z,24.15
2022-08-25T10:04:57.460Z,24.22
2022-08-25T10:07:30.000Z,24.13
2022-08-25T10:10:01.833Z,22.54
2022-08-25T10:12:42.919Z,22.64
2022-08-25T10:15:30.369Z,23.77
2022-08-25T10:18:28.583Z,23.28
2022-08-25T10:21:04.559Z,21.17
2022-08-25T10:23:51.686Z,19.78
2022-08-25T10:26:53.761Z,20.18
2022-08-25T10:29:53.669Z,18.00
2022-08-25T10:32:30.503Z,17.28
2022-08-25T10:35:03.887Z,16.19
2022-08-25T10:37:41.156Z,13.99
2022-08-25T10:40:37.274Z,14.20
2022-08-25T10:43:11.416Z,14.39
2022-08-25T10:45:51.387Z,13.80
2022-08-25T10:48:46.143Z,13.40
2022-08-25T10:51:43.282Z,12.57
2022-08-25T10:54:26.104Z,13.60
2022-08-25T10:57:17.408Z,14.64
2022-08-25T11:00:07.643Z,16.51
2022-08-25T11:02:54.315Z,16.87
2022-08-25T11:05:40.339Z,16.40
2022-08-25T11:08:17.632Z,16.61
2022-08-25T11:10:58.359Z,18.01
2022-08-25T11:13:44.310Z,19.85
2022-08-25T11:16:19.654Z,20.74
2022-08-25T11:19:02.451Z,21.60
2022-08-25T11:22:16.232Z,21.50
2022-08-25T11:24:53.577Z,22.72
2022-08-25T11:27:28.292Z,23.78
2022-08-25T11:30:08.958Z,23.17
2022-08-25T11:32:39.083Z,24.00
2022-08-25T11:35:12.139Z,23.92
2022-08-25T11:38:06.687Z,23.99
2022-08-25T11:40:44.548Z,24.55
2022-08-25T11:43:42.939Z,24.05
2022-08-25T11:46:30.815Z,24.55
2022-08-25T11:49:28.317Z,24.85
2022-08-25T11:52:02.860Z,24.62
2022-08-25T11:54:44.241Z,24.52
2022-08-25T11:57:13.420Z,24.13
2022-08-25T11:59:50.376Z,23.15
2022-08-25T12:02:40.010Z,24.28
2022-08-25T12:05:20.193Z,24.38
2022-08-25T12:08:06.919Z,24.29
2022-08-25T12:10:59.537Z,25.34
2022-08-25T12:13:42.801Z,24.62
2022-08-25T12:16:32.384Z,24.72
2022-08-25T12:19:34.456Z,25.17
2022-08-25T12:22:03.410Z,24.45
2022-08-25T12:24:47.712Z,24.55
2022-08-25T12:27:39.039Z,25.13
2022-08-25T12:30:26.289Z,25.83
2022-08-25T12:33:11.969Z,25.61
2022-08-25T12:35:59.227Z,25.96
2022-08-25T12:38:42.477Z,24.85
2022-08-25T12:41:15.276Z,24.53
2022-08-25T12:43:46.429Z,24.30
2022-08-25T12:46:20.402Z,24.54
2022-08-25T12:49:12.277Z,24.92
2022-08-25T12:51:39.969Z,23.93
2022-08-25T12:54:49.919Z,23.65
2022-08-25T12:57:30.585Z,24.62
2022-08-25T13:00:01.971Z,24.13
2022-08-25T13:03:04.963Z,24.53
2022-08-25T13:06:10.997Z,25.06
2022-08-25T13:09:01.759Z,26.57
2022-08-25T13:11:52.560Z,27.04
2022-08-25T13:14:35.078Z,27.01
2022-08-25T13:17:07.384Z,26.05
2022-08-25T13:19:38.028Z,26.49
2022-08-25T13:22:18.330Z,27.65
2022-08-25T13:24:50.939Z,27.68
2022-08-25T13:27:26.832Z,27.19
2022-08-25T13:29:58.280Z,26.57
2022-08-25T13:32:32.355Z,26.38
2022-08-25T13:35:25.547Z,26.89
2022-08-25T13:38:15.790Z,28.02
2022-08-25T13:40:44.324Z,27.43
2022-08-25T13:43:14.314Z,27.55
2022-08-25T13:45:45.968Z,26.75
2022-08-25T13:48:31.055Z,27.16
2022-08-25T13:51:09.538Z,27.24
2022-08-25T13:53:38.816Z,27.55
2022-08-25T13:56:07.480Z,27.77
2022-08-25T13:58:44.343Z,27.67
2022-08-25T14:01:49.045Z,27.35
2022-08-25T14:04:31.867Z,27.06
2022-08-25T14:07:21.395Z,26.69
2022-08-25T14:09:52.887Z,26.50
2022-08-25T14:12:30.953Z,26.27
2022-08-25T14:15:10.521Z,26.60
2022-08-25T14:17:42.396Z,26.00
2022-08-25T14:20:25.754Z,26.94
2022-08-25T14:22:58.001Z,26.62
2022-08-25T14:25:30.289Z,26.22
2022-08-25T14:28:06.536Z,25.85
2022-08-25T14:30:39.337Z,26.39
2022-08-25T14:33:08.775Z,27.08
2022-08-25T14:35:38.127Z,26.45
2022-08-25T14:38:11.990Z,25.65
2022-08-25T14:40:39.893Z,25.93
2022-08-25T14:43:09.385Z,26.68
2022-08-25T14:45:41.030Z,26.51
2022-08-25T14:48:14.402Z,26.72
2022-08-25T14:50:42.339Z,26.51
2022-08-25T14:53:11.933Z,26.72
2022-08-25T14:55:39.973Z,26.97
2022-08-25T14:58:08.573Z,27.36
2022-08-25T15:00:42.099Z,26.65
2022-08-25T15:03:16.231Z,26.87
2022-08-25T15:05:45.792Z,27.46
2022-08-25T15:08:34.481Z,27.27
2022-08-25T15:11:02.268Z,27.35
2022-08-25T15:13:36.865Z,26.54
2022-08-25T15:16:05.242Z,26.88
2022-08-25T15:18:33.232Z,26.30
2022-08-25T15:21:01.018Z,27.55
2022-08-25T15:23:33.687Z,26.90
2022-08-25T15:26:05.331Z,26.54
2022-08-25T15:28:33.462Z,25.92
2022-08-25T15:31:01.189Z,26.36
2022-08-25T15:33:29.009Z,26.18
2022-08-25T15:35:56.974Z,26.16
2022-08-25T15:38:26.363Z,25.33
2022-08-25T15:40:54.249Z,25.82
2022-08-25T15:43:22.541Z,26.96
2022-08-25T15:45:50.920Z,26.00
2022-08-25T15:48:19.693Z,26.24
2022-08-25T15:50:48.893Z,26.83
2022-08-25T15:53:16.608Z,27.25
2022-08-25T15:55:44.724Z,26.89
2022-08-25T15:58:12.793Z,27.25
2022-08-25T16:00:41.390Z,27.64
2022-08-25T16:03:10.140Z,25.83
2022-08-25T16:05:41.327Z,25.77
2022-08-25T16:08:19.618Z,26.03
2022-08-25T16:10:47.710Z,25.97
2022-08-25T16:13:17.435Z,25.64
2022-08-25T16:15:54.147Z,26.29
2022-08-25T16:18:24.074Z,26.08
2022-08-25T16:20:52.441Z,26.46
2022-08-25T16:23:20.716Z,26.59
2022-08-25T16:25:49.595Z,25.94
2022-08-25T16:28:20.665Z,25.99
2022-08-25T16:30:53.030Z,26.22
2022-08-25T16:33:21.514Z,26.60
2022-08-25T16:35:49.450Z,26.48
2022-08-25T16:38:17.818Z,27.42
2022-08-25T16:40:46.597Z,27.97
2022-08-25T16:43:14.381Z,27.89
2022-08-25T16:45:42.117Z,27.54
2022-08-25T16:48:09.909Z,27.88
2022-08-25T16:50:39.567Z,28.28
2022-08-25T16:53:27.038Z,27.88
2022-08-25T16:56:03.345Z,27.99
2022-08-25T16:58:33.285Z,28.16
2022-08-25T17:01:09.526Z,28.58
2022-08-25T17:03:40.381Z,29.28
2022-08-25T17:06:14.157Z,28.58
2022-08-25T17:08:43.826Z,29.28
2022-08-25T17:11:14.808Z,29.77
2022-08-25T17:13:46.802Z,29.26
2022-08-25T17:16:22.423Z,29.22
2022-08-25T17:18:50.262Z,30.10
2022-08-25T17:21:24.249Z,30.30
2022-08-25T17:23:57.900Z,30.21
2022-08-25T17:26:29.080Z,30.63
2022-08-25T17:28:59.223Z,30.07
2022-08-25T17:31:28.205Z,30.52
2022-08-25T17:33:56.469Z,30.83
2022-08-25T17:36:27.345Z,31.24
2022-08-25T17:38:56.835Z,31.19
2022-08-25T17:41:25.447Z,30.72
2022-08-25T17:43:53.707Z,30.92
2022-08-25T17:46:21.898Z,31.70
2022-08-25T17:48:50.868Z,32.39
2022-08-25T17:51:18.635Z,31.66
2022-08-25T17:53:46.869Z,32.65
2022-08-25T17:56:18.538Z,32.58
2022-08-25T17:58:47.389Z,33.30
2022-08-25T18:01:22.347Z,34.15
2022-08-25T18:03:51.519Z,34.76
2022-08-25T18:06:20.608Z,34.67
2022-08-25T18:08:51.672Z,35.43
2022-08-25T18:11:21.599Z,35.98
2022-08-25T18:13:50.400Z,36.06
2022-08-25T18:16:18.890Z,36.61
2022-08-25T18:18:46.819Z,37.41
2022-08-25T18:21:17.123Z,37.26
2022-08-25T18:23:45.807Z,36.94
2022-08-25T18:26:15.805Z,36.93
2022-08-25T18:28:43.981Z,36.95
2022-08-25T18:31:13.281Z,38.08
2022-08-25T18:33:42.223Z,38.36
2022-08-25T18:36:11.302Z,38.21
2022-08-25T18:38:59.374Z,38.32
2022-08-25T18:41:35.171Z,37.67
2022-08-25T18:44:04.520Z,37.83
2022-08-25T18:46:32.687Z,36.27
2022-08-25T18:49:01.435Z,36.62
2022-08-25T18:51:29.224Z,36.60
2022-08-25T18:54:01.488Z,37.23
2022-08-25T18:56:30.252Z,36.02
2022-08-25T18:58:58.422Z,36.61
2022-08-25T19:01:26.283Z,36.27
2022-08-25T19:03:54.276Z,36.81
2022-08-25T19:06:22.065Z,36.56
2022-08-25T19:08:49.865Z,36.36
2022-08-25T19:11:22.215Z,36.30
2022-08-25T19:13:51.728Z,36.27
2022-08-25T19:16:34.378Z,36.52
2022-08-25T19:19:04.213Z,36.58
2022-08-25T19:21:35.506Z,36.70
2022-08-25T19:24:03.642Z,37.28
2022-08-25T19:26:34.366Z,38.12
2022-08-25T19:29:06.500Z,38.40
2022-08-25T19:31:39.245Z,37.91
2022-08-25T19:34:10.198Z,38.09
2022-08-25T19:36:38.122Z,39.15
2022-08-25T19:39:08.444Z,40.21
2022-08-25T19:41:36.351Z,39.85
2022-08-25T19:44:04.492Z,41.14
2022-08-25T19:46:36.263Z,41.10
2022-08-25T19:49:12.567Z,41.40
2022-08-25T19:51:44.606Z,41.40
2022-08-25T19:54:20.730Z,41.46
2022-08-25T19:56:54.608Z,41.84
2022-08-25T19:59:36.578Z,41.71
2022-08-25T20:02:19.424Z,42.11
2022-08-25T20:04:50.393Z,42.45
2022-08-25T20:07:24.516Z,41.89
2022-08-25T20:09:54.071Z,42.25
2022-08-25T20:12:23.776Z,42.53
2022-08-25T20:14:53.498Z,43.14
2022-08-25T20:17:24.011Z,43.06
2022-08-25T20:19:55.337Z,43.61
2022-08-25T20:22:26.615Z,44.14
2022-08-25T20:24:58.465Z,44.41
2022-08-25T20:27:32.176Z,44.82
2022-08-25T20:30:02.679Z,44.92
2022-08-25T20:32:33.106Z,45.42
2022-08-25T20:35:01.962Z,45.94
2022-08-25T20:37:30.260Z,46.32
2022-08-25T20:39:58.622Z,46.35
2022-08-25T20:42:26.522Z,46.26
2022-08-25T20:44:54.768Z,46.31
2022-08-25T20:47:22.713Z,46.37
2022-08-25T20:49:50.620Z,46.16
2022-08-25T20:52:19.806Z,46.85
2022-08-25T20:54:49.614Z,47.43
2022-08-25T20:57:25.823Z,47.82
2022-08-25T20:59:56.963Z,47.90
2022-08-25T21:02:25.848Z,47.99
2022-08-25T21:04:54.167Z,47.94
2022-08-25T21:07:25.914Z,48.10
2022-08-25T21:09:53.774Z,48.05
2022-08-25T21:12:21.792Z,48.42
2022-08-25T21:14:49.664Z,48.58
2022-08-25T21:17:19.454Z,48.65
2022-08-25T21:22:16.744Z,48.91
2022-08-25T21:24:45.067Z,49.31
2022-08-25T21:27:13.360Z,49.34
2022-08-25T21:30:30.200Z,49.79
2022-08-25T21:32:58.127Z,49.54
2022-08-25T21:35:30.763Z,49.41
2022-08-25T21:37:58.682Z,49.15
2022-08-25T21:40:26.699Z,50.05
2022-08-25T21:42:56.118Z,51.93
2022-08-25T21:45:24.397Z,53.30
2022-08-25T21:47:52.463Z,53.28
2022-08-25T21:50:21.406Z,52.69
2022-08-25T21:52:54.502Z,53.40
2022-08-25T21:55:23.554Z,53.26
2022-08-25T21:57:52.773Z,53.43
2022-08-25T22:00:22.672Z,53.77
2022-08-25T22:02:50.642Z,53.73
2022-08-25T22:05:18.670Z,53.56
2022-08-25T22:07:46.596Z,54.86
2022-08-25T22:10:16.541Z,54.11
2022-08-25T22:12:47.915Z,53.44
2022-08-25T22:15:17.860Z,53.34
2022-08-25T22:17:48.082Z,52.93
2022-08-25T22:20:17.927Z,53.18
2022-08-25T22:22:46.164Z,54.19
2022-08-25T22:25:14.638Z,54.46
2022-08-25T22:27:43.111Z,54.31
2022-08-25T22:30:13.800Z,54.56
2022-08-25T22:32:42.624Z,55.20
2022-08-25T22:35:13.783Z,55.21
2022-08-25T22:37:42.011Z,55.51
2022-08-25T22:40:11.196Z,55.39
2022-08-25T22:42:39.465Z,55.36
2022-08-25T22:45:09.827Z,55.00
2022-08-25T22:47:38.330Z,54.72
2022-08-25T22:50:09.997Z,55.02
2022-08-25T22:52:38.346Z,55.19
2022-08-25T22:55:11.183Z,55.38
2022-08-25T22:57:41.492Z,55.41
2022-08-25T23:00:13.874Z,55.36
2022-08-25T23:02:43.038Z,55.15
2022-08-25T23:05:13.190Z,55.24
2022-08-25T23:07:41.744Z,54.93
2022-08-25T23:10:11.847Z,55.48
2022-08-25T23:12:40.368Z,55.86
2022-08-25T23:15:13.012Z,55.64
2022-08-25T23:17:42.011Z,55.73
2022-08-25T23:20:29.464Z,55.41
2022-08-25T23:22:58.627Z,55.29
2022-08-25T23:25:26.682Z,55.11
2022-08-25T23:27:54.707Z,55.22
2022-08-25T23:30:23.203Z,55.72
2022-08-25T23:32:50.970Z,56.27
2022-08-25T23:35:21.722Z,56.25
2022-08-25T23:37:51.510Z,56.18
2022-08-25T23:40:19.778Z,56.09
2022-08-25T23:42:47.810Z,56.20
2022-08-25T23:45:16.662Z,56.27
2022-08-25T23:47:44.477Z,56.96
2022-08-25T23:50:12.393Z,57.06
2022-08-25T23:52:40.183Z,57.21
2022-08-25T23:55:08.949Z,57.48
2022-08-25T23:57:36.765Z,57.48
